Connecticut River @ Montague City, Ma

Connecticut River at Montague City
 Total Drainage Area: 7,865 sq. miles 
 Drainage Area Controlled by Corps Dams: 1,154 sq. miles (15%) 
 Warning Flow/Stage: 64,200 cfs / 25.0 feet 
 Flood Flow/Stage: 89,700 cfs / 30.0 feet 
Date Time
(Eastern)
Stage
(ft)
Flow
(cfs)
CSM
(cfs / sq. mi.)
Jun-25 12:30 am 13.26 18,381 2.3
Jun-24 11:30 pm 12.60 16,227 2.1
Jun-24 10:30 pm 12.98 17,435 2.2
Jun-24 09:30 pm 13.21 18,210 2.3
Jun-24 08:30 pm 13.21 18,210 2.3
Jun-24 07:30 pm 13.14 17,972 2.3
Jun-24 06:30 pm 13.22 18,244 2.3
Jun-24 05:30 pm 13.41 18,898 2.4
Jun-24 04:30 pm 13.33 18,621 2.4
Jun-24 03:30 pm 13.24 18,312 2.3
Jun-24 02:30 pm 13.20 18,176 2.3
Jun-24 01:30 pm 13.21 18,210 2.3
Jun-24 12:30 pm 12.94 17,306 2.2
Jun-24 11:30 am 12.97 17,403 2.2
Jun-24 10:30 am 12.96 17,371 2.2
Jun-24 09:30 am 12.79 16,826 2.1
Jun-24 08:30 am 12.46 15,792 2.0
Jun-24 07:30 am 12.21 15,028 1.9
Jun-24 06:30 am 11.42 12,742 1.6
Jun-24 05:30 am 11.39 12,659 1.6
Jun-24 04:30 am 11.44 12,798 1.6
Jun-24 03:30 am 11.52 13,022 1.7
Jun-24 02:30 am 11.44 12,798 1.6
Jun-24 01:30 am 11.46 12,854 1.6
Jun-24 12:30 am 11.55 13,106 1.7
Report Generated June 25, 2024 01:02 am